createdAt,value
2023-03-18T00:01:11.513Z,59.38
2023-03-18T00:03:39.124Z,60.17
2023-03-18T00:06:12.291Z,60.76
2023-03-18T00:08:41.223Z,61.68
2023-03-18T00:11:10.199Z,60.07
2023-03-18T00:13:37.918Z,60.82
2023-03-18T00:16:07.613Z,59.77
2023-03-18T00:18:34.800Z,60.69
2023-03-18T00:21:02.152Z,60.02
2023-03-18T00:23:29.310Z,60.05
2023-03-18T00:25:58.297Z,60.78
2023-03-18T00:28:26.810Z,61.34
2023-03-18T00:30:55.031Z,61.89
2023-03-18T00:33:23.506Z,62.24
2023-03-18T00:35:51.145Z,64.40
2023-03-18T00:38:21.600Z,65.71
2023-03-18T00:41:11.538Z,66.27
2023-03-18T00:43:49.819Z,67.63
2023-03-18T00:46:23.266Z,67.86
2023-03-18T00:48:57.488Z,68.35
2023-03-18T00:51:37.206Z,69.02
2023-03-18T00:54:10.205Z,68.41
2023-03-18T00:56:40.204Z,68.03
2023-03-18T00:59:10.665Z,68.67
2023-03-18T01:01:39.782Z,67.82
2023-03-18T01:04:10.238Z,68.11
2023-03-18T01:06:38.664Z,67.90
2023-03-18T01:09:10.485Z,68.83
2023-03-18T01:11:45.119Z,69.32
2023-03-18T01:14:12.939Z,69.71
2023-03-18T01:16:41.670Z,68.87
2023-03-18T01:19:10.221Z,70.29
2023-03-18T01:21:38.329Z,69.99
2023-03-18T01:24:06.206Z,69.22
2023-03-18T01:26:33.195Z,69.83
2023-03-18T01:29:00.465Z,70.50
2023-03-18T01:31:28.786Z,71.02
2023-03-18T01:33:56.199Z,71.12
2023-03-18T01:36:23.291Z,71.84
2023-03-18T01:38:49.976Z,71.49
2023-03-18T01:41:17.464Z,70.74
2023-03-18T01:43:44.786Z,71.61
2023-03-18T01:46:35.264Z,71.62
2023-03-18T01:49:12.753Z,73.63
2023-03-18T01:51:43.700Z,74.68
2023-03-18T01:54:14.185Z,74.40
2023-03-18T01:56:42.544Z,74.64
2023-03-18T01:59:14.555Z,74.55
2023-03-18T02:01:58.694Z,75.54
2023-03-18T02:04:31.168Z,75.65
2023-03-18T02:07:00.206Z,75.07
2023-03-18T02:09:27.367Z,72.62
2023-03-18T02:14:24.337Z,73.48
2023-03-18T02:16:55.868Z,72.79
2023-03-18T02:19:37.259Z,87.29
2023-03-18T02:22:16.390Z,76.86
2023-03-18T02:24:54.238Z,76.26
2023-03-18T02:27:21.163Z,76.80
2023-03-18T02:29:49.725Z,76.63
2023-03-18T02:32:18.617Z,77.66
2023-03-18T02:34:46.114Z,78.21
2023-03-18T02:37:13.184Z,77.61
2023-03-18T02:39:40.332Z,77.53
2023-03-18T02:42:07.512Z,76.97
2023-03-18T02:44:40.979Z,77.48
2023-03-18T02:47:13.757Z,77.10
2023-03-18T02:49:41.673Z,77.15
2023-03-18T02:52:10.146Z,77.03
2023-03-18T02:54:37.617Z,77.61
2023-03-18T02:57:07.638Z,78.30
2023-03-18T02:59:36.254Z,78.56
2023-03-18T03:02:07.331Z,79.86
2023-03-18T03:04:34.377Z,80.40
2023-03-18T03:07:02.353Z,81.95
2023-03-18T03:09:29.968Z,82.75
2023-03-18T03:11:56.975Z,83.19
2023-03-18T03:14:23.918Z,83.42
2023-03-18T03:16:51.018Z,83.22
2023-03-18T03:19:18.163Z,83.96
2023-03-18T03:21:44.913Z,82.86
2023-03-18T03:24:13.847Z,83.29
2023-03-18T03:26:40.752Z,82.38
2023-03-18T03:29:07.702Z,84.53
2023-03-18T03:31:36.948Z,84.31
2023-03-18T03:34:04.304Z,83.84
2023-03-18T03:36:31.450Z,83.85
2023-03-18T03:38:58.604Z,85.12
2023-03-18T03:41:28.524Z,84.85
2023-03-18T03:43:55.469Z,86.07
2023-03-18T03:46:22.549Z,85.92
2023-03-18T03:48:51.566Z,85.64
2023-03-18T03:51:18.814Z,86.97
2023-03-18T03:53:46.675Z,86.64
2023-03-18T03:56:14.076Z,86.31
2023-03-18T03:58:41.428Z,86.41
2023-03-18T04:01:09.159Z,85.66
2023-03-18T04:03:36.188Z,85.11
2023-03-18T04:06:04.893Z,84.97
2023-03-18T04:08:31.961Z,84.06
2023-03-18T04:10:59.499Z,85.35
2023-03-18T04:13:36.474Z,86.56
2023-03-18T04:16:03.984Z,87.62
2023-03-18T04:18:31.567Z,87.93
2023-03-18T04:20:58.357Z,87.52
2023-03-18T04:23:26.070Z,87.50
2023-03-18T04:25:52.966Z,88.26
2023-03-18T04:28:19.643Z,87.96
2023-03-18T04:30:48.913Z,88.56
2023-03-18T04:33:18.636Z,89.04
2023-03-18T04:35:45.834Z,88.05
2023-03-18T04:38:13.105Z,88.79
2023-03-18T04:40:41.136Z,87.50
2023-03-18T04:43:10.538Z,86.90
2023-03-18T04:45:37.643Z,86.97
2023-03-18T04:48:05.865Z,86.96
2023-03-18T04:50:35.605Z,87.51
2023-03-18T04:55:53.846Z,88.14
2023-03-18T04:58:20.957Z,89.26
2023-03-18T05:00:54.845Z,89.92
2023-03-18T05:03:22.212Z,88.79
2023-03-18T05:05:52.457Z,87.69
2023-03-18T05:08:21.969Z,86.50
2023-03-18T05:11:06.136Z,88.71
2023-03-18T05:13:32.940Z,89.01
2023-03-18T05:16:00.045Z,88.10
2023-03-18T05:18:29.712Z,89.49
2023-03-18T05:21:16.234Z,87.90
2023-03-18T05:23:43.376Z,87.65
2023-03-18T05:26:11.720Z,84.58
2023-03-18T05:29:07.351Z,83.82
2023-03-18T05:31:34.155Z,83.84
2023-03-18T05:34:01.126Z,80.79
2023-03-18T05:36:28.044Z,78.64
2023-03-18T05:38:55.161Z,76.66
2023-03-18T05:41:24.344Z,74.21
2023-03-18T05:43:51.336Z,71.56
2023-03-18T05:46:18.241Z,70.24
2023-03-18T05:48:44.955Z,69.38
2023-03-18T05:51:13.008Z,68.25
2023-03-18T05:53:39.727Z,72.91
2023-03-18T05:56:06.583Z,70.45
2023-03-18T05:58:34.986Z,67.85
2023-03-18T06:01:01.792Z,65.01
2023-03-18T06:03:29.750Z,65.25
2023-03-18T06:05:56.950Z,64.12
2023-03-18T06:08:23.864Z,66.75
2023-03-18T06:10:54.293Z,67.41
2023-03-18T06:13:22.197Z,63.45
2023-03-18T06:15:49.026Z,61.28
2023-03-18T06:18:15.915Z,63.85
2023-03-18T06:20:42.995Z,64.59
2023-03-18T06:23:10.199Z,67.12
2023-03-18T06:25:36.911Z,77.56
2023-03-18T06:28:04.074Z,75.77
2023-03-18T06:30:31.005Z,66.94
2023-03-18T06:32:58.380Z,63.37
2023-03-18T06:35:27.865Z,64.51
2023-03-18T06:37:55.046Z,65.52
2023-03-18T06:40:22.406Z,62.08
2023-03-18T06:42:49.387Z,63.82
2023-03-18T06:45:17.236Z,64.35
2023-03-18T06:47:44.863Z,62.09
2023-03-18T06:50:12.257Z,59.13
2023-03-18T06:52:39.230Z,60.09
2023-03-18T06:55:06.819Z,58.57
2023-03-18T06:57:35.187Z,57.55
2023-03-18T07:00:02.629Z,56.90
2023-03-18T07:02:40.021Z,54.19
2023-03-18T07:05:08.222Z,58.28
2023-03-18T07:07:37.770Z,57.22
2023-03-18T07:10:10.838Z,58.72
2023-03-18T07:12:37.745Z,54.88
2023-03-18T07:15:04.646Z,53.01
2023-03-18T07:17:34.399Z,54.45
2023-03-18T07:20:01.310Z,53.64
2023-03-18T07:22:29.273Z,53.16
2023-03-18T07:24:56.230Z,55.77
2023-03-18T07:27:24.046Z,54.15
2023-03-18T07:29:50.946Z,54.95
2023-03-18T07:32:19.418Z,54.11
2023-03-18T07:34:48.141Z,55.02
2023-03-18T07:37:14.983Z,56.21
2023-03-18T07:39:43.958Z,57.12
2023-03-18T07:42:11.786Z,55.62
2023-03-18T07:44:38.605Z,55.70
2023-03-18T07:47:05.761Z,53.87
2023-03-18T07:49:36.657Z,56.47
2023-03-18T07:52:04.080Z,55.70
2023-03-18T07:54:31.207Z,56.12
2023-03-18T07:56:58.339Z,56.13
2023-03-18T07:59:25.313Z,55.55
2023-03-18T08:01:52.589Z,54.03
2023-03-18T08:04:20.101Z,52.71
2023-03-18T08:06:47.585Z,52.92
2023-03-18T08:09:14.690Z,53.60
2023-03-18T08:11:41.824Z,51.73
2023-03-18T08:14:08.780Z,50.82
2023-03-18T08:16:35.979Z,49.69
2023-03-18T08:19:02.826Z,51.11
2023-03-18T08:21:30.488Z,49.24
2023-03-18T08:23:57.490Z,49.85
2023-03-18T08:26:24.873Z,49.87
2023-03-18T08:28:51.770Z,49.18
2023-03-18T08:31:18.974Z,48.18
2023-03-18T08:33:46.670Z,49.26
2023-03-18T08:36:14.241Z,50.33
2023-03-18T08:38:41.161Z,50.35
2023-03-18T08:41:07.988Z,49.43
2023-03-18T08:43:40.246Z,48.49
2023-03-18T08:46:07.477Z,48.34
2023-03-18T08:48:35.246Z,50.37
2023-03-18T08:51:08.465Z,50.73
2023-03-18T08:53:35.955Z,51.53
2023-03-18T08:56:03.830Z,51.98
2023-03-18T08:58:32.056Z,50.51
2023-03-18T09:00:59.633Z,50.01
2023-03-18T09:03:26.506Z,63.10
2023-03-18T09:05:53.971Z,49.83
2023-03-18T09:08:22.271Z,50.59
2023-03-18T09:10:53.665Z,50.15
2023-03-18T09:13:22.055Z,49.17
2023-03-18T09:15:49.409Z,49.11
2023-03-18T09:18:18.448Z,48.51
2023-03-18T09:20:47.483Z,48.49
2023-03-18T09:23:15.829Z,48.02
2023-03-18T09:25:45.305Z,49.64
2023-03-18T09:28:12.845Z,49.88
2023-03-18T09:30:40.522Z,50.91
2023-03-18T09:33:09.370Z,50.89
2023-03-18T09:35:36.833Z,51.14
2023-03-18T09:38:05.369Z,48.88
2023-03-18T09:40:39.549Z,47.74
2023-03-18T09:43:18.594Z,49.10
2023-03-18T09:46:09.709Z,48.94
2023-03-18T09:49:04.492Z,47.45
2023-03-18T09:52:08.919Z,46.25
2023-03-18T09:54:41.589Z,45.21
2023-03-18T09:57:42.889Z,46.03
2023-03-18T10:00:26.508Z,44.40
2023-03-18T10:03:30.303Z,45.34
2023-03-18T10:06:03.544Z,44.93
2023-03-18T10:08:44.636Z,43.63
2023-03-18T10:11:53.574Z,44.08
2023-03-18T10:14:48.232Z,44.77
2023-03-18T10:17:15.760Z,44.09
2023-03-18T10:19:55.514Z,42.23
2023-03-18T10:22:52.167Z,41.73
2023-03-18T10:25:54.829Z,42.32
2023-03-18T10:28:46.843Z,42.03
2023-03-18T10:31:26.639Z,41.67
2023-03-18T10:34:06.862Z,41.16
2023-03-18T10:36:55.577Z,39.92
2023-03-18T10:39:26.201Z,39.72
2023-03-18T10:41:54.894Z,39.77
2023-03-18T10:44:46.323Z,41.08
2023-03-18T10:47:38.299Z,40.66
2023-03-18T10:50:18.194Z,37.80
2023-03-18T10:52:51.261Z,37.56
2023-03-18T10:55:22.890Z,37.43
2023-03-18T10:57:52.204Z,37.88
2023-03-18T11:00:31.229Z,37.56
2023-03-18T11:02:59.212Z,36.16
2023-03-18T11:05:34.485Z,35.88
2023-03-18T11:08:04.912Z,36.49
2023-03-18T11:10:44.112Z,35.58
2023-03-18T11:13:17.152Z,36.48
2023-03-18T11:15:51.821Z,36.62
2023-03-18T11:18:26.230Z,36.29
2023-03-18T11:21:01.933Z,35.98
2023-03-18T11:23:48.726Z,33.65
2023-03-18T11:26:23.171Z,33.00
2023-03-18T11:28:54.754Z,33.83
2023-03-18T11:31:23.233Z,32.46
2023-03-18T11:33:50.119Z,33.71
2023-03-18T11:36:24.257Z,33.06
2023-03-18T11:39:17.522Z,33.61
2023-03-18T11:41:44.339Z,33.22
2023-03-18T11:44:19.518Z,34.61
2023-03-18T11:46:55.013Z,34.44
2023-03-18T11:49:26.294Z,33.25
2023-03-18T11:52:43.959Z,32.27
2023-03-18T11:55:30.124Z,34.20
2023-03-18T11:58:15.834Z,34.57
2023-03-18T12:00:50.572Z,33.13
2023-03-18T12:03:54.590Z,31.64
2023-03-18T12:06:26.556Z,31.70
2023-03-18T12:09:09.784Z,32.54
2023-03-18T12:12:01.495Z,31.10
2023-03-18T12:14:36.799Z,30.87
2023-03-18T12:17:54.290Z,31.39
2023-03-18T12:20:36.390Z,32.41
2023-03-18T12:23:21.376Z,33.13
2023-03-18T12:26:00.718Z,32.18
2023-03-18T12:28:36.722Z,32.84
2023-03-18T12:31:24.933Z,33.26
2023-03-18T12:33:56.685Z,33.25
2023-03-18T12:37:08.467Z,31.92
2023-03-18T12:40:06.748Z,31.33
2023-03-18T12:42:45.301Z,29.84
2023-03-18T12:45:25.688Z,31.04
2023-03-18T12:48:03.913Z,30.02
2023-03-18T12:50:37.551Z,30.09
2023-03-18T12:53:15.476Z,31.56
2023-03-18T12:55:48.246Z,30.00
2023-03-18T12:58:31.177Z,30.87
2023-03-18T13:01:25.147Z,31.93
2023-03-18T13:04:03.232Z,33.26
2023-03-18T13:07:08.206Z,33.83
2023-03-18T13:09:40.205Z,34.54
2023-03-18T13:12:16.325Z,34.08
2023-03-18T13:14:54.776Z,32.89
2023-03-18T13:17:30.780Z,32.67
2023-03-18T13:20:00.713Z,32.10
2023-03-18T13:22:36.800Z,30.33
2023-03-18T13:25:28.376Z,32.58
2023-03-18T13:28:31.244Z,32.04
2023-03-18T13:31:14.718Z,33.04
2023-03-18T13:33:53.672Z,33.02
2023-03-18T13:36:52.367Z,32.09
2023-03-18T13:39:25.493Z,32.25
2023-03-18T13:42:03.701Z,33.32
2023-03-18T13:44:54.659Z,33.98
2023-03-18T13:47:39.235Z,32.72
2023-03-18T13:50:20.293Z,30.54
2023-03-18T13:52:50.179Z,30.89
2023-03-18T13:55:44.663Z,31.11
2023-03-18T13:58:23.922Z,32.03
2023-03-18T14:00:57.397Z,31.07
2023-03-18T14:03:42.944Z,31.81
2023-03-18T14:06:10.682Z,31.06
2023-03-18T14:08:46.558Z,30.64
2023-03-18T14:11:23.196Z,32.24
2023-03-18T14:13:52.726Z,33.43
2023-03-18T14:16:45.642Z,34.55
2023-03-18T14:22:38.124Z,36.03
2023-03-18T14:25:18.865Z,36.80
2023-03-18T14:27:55.219Z,36.97
2023-03-18T14:30:44.518Z,37.08
2023-03-18T14:33:23.016Z,37.37
2023-03-18T14:36:06.807Z,37.29
2023-03-18T14:38:43.407Z,37.19
2023-03-18T14:41:32.883Z,36.10
2023-03-18T14:44:13.933Z,36.94
2023-03-18T14:46:44.857Z,36.54
2023-03-18T14:49:33.210Z,36.30
2023-03-18T14:52:03.968Z,36.46
2023-03-18T14:54:37.387Z,36.81
2023-03-18T14:57:09.404Z,36.79
2023-03-18T14:59:36.475Z,37.54
2023-03-18T15:02:14.559Z,36.81
2023-03-18T15:04:54.523Z,36.78
2023-03-18T15:07:28.451Z,35.87
2023-03-18T15:09:57.032Z,36.07
2023-03-18T15:12:30.634Z,36.34
2023-03-18T15:14:57.283Z,36.48
2023-03-18T15:17:27.616Z,35.65
2023-03-18T15:20:00.055Z,33.90
2023-03-18T15:22:31.394Z,33.63
2023-03-18T15:25:02.722Z,35.05
2023-03-18T15:27:39.664Z,34.28
2023-03-18T15:30:11.457Z,34.86
2023-03-18T15:32:49.875Z,34.96
2023-03-18T15:35:21.873Z,35.18
2023-03-18T15:38:12.507Z,35.96
2023-03-18T15:40:45.090Z,36.66
2023-03-18T15:43:12.042Z,36.54
2023-03-18T15:45:47.461Z,36.72
2023-03-18T15:48:38.584Z,37.09
2023-03-18T15:51:11.058Z,36.86
2023-03-18T15:53:47.817Z,36.60
2023-03-18T15:56:35.778Z,36.65
2023-03-18T15:59:14.750Z,37.33
2023-03-18T16:01:43.062Z,37.19
2023-03-18T16:04:14.855Z,37.50
2023-03-18T16:06:41.710Z,37.82
2023-03-18T16:09:22.204Z,37.79
2023-03-18T16:11:53.464Z,38.18
2023-03-18T16:14:24.178Z,38.67
2023-03-18T16:16:51.806Z,38.28
2023-03-18T16:19:35.078Z,38.79
2023-03-18T16:22:11.115Z,38.86
2023-03-18T16:24:50.115Z,38.79
2023-03-18T16:27:31.974Z,38.75
2023-03-18T16:29:59.431Z,39.18
2023-03-18T16:32:31.421Z,38.91
2023-03-18T16:34:59.749Z,39.29
2023-03-18T16:37:27.952Z,38.70
2023-03-18T16:39:56.014Z,38.47
2023-03-18T16:42:25.107Z,39.23
2023-03-18T16:44:53.183Z,39.09
2023-03-18T16:47:22.924Z,39.13
2023-03-18T16:49:53.474Z,39.93
2023-03-18T16:52:30.688Z,39.47
2023-03-18T16:54:58.472Z,40.30
2023-03-18T16:57:25.816Z,39.61
2023-03-18T16:59:56.976Z,42.93
2023-03-18T17:02:36.388Z,39.76
2023-03-18T17:05:03.675Z,38.84
2023-03-18T17:07:37.034Z,39.57
2023-03-18T17:10:04.445Z,40.43
2023-03-18T17:12:31.338Z,40.58
2023-03-18T17:15:02.344Z,40.25
2023-03-18T17:17:35.571Z,41.01
2023-03-18T17:20:03.561Z,42.09
2023-03-18T17:22:32.674Z,42.23
2023-03-18T17:25:01.944Z,43.63
2023-03-18T17:27:46.882Z,42.92
2023-03-18T17:30:23.220Z,42.83
2023-03-18T17:32:50.732Z,43.71
2023-03-18T17:35:20.578Z,44.39
2023-03-18T17:37:48.229Z,44.18
2023-03-18T17:40:20.245Z,44.39
2023-03-18T17:42:48.676Z,44.17
2023-03-18T17:45:29.710Z,44.50
2023-03-18T17:48:37.934Z,49.11
2023-03-18T17:51:19.479Z,52.66
2023-03-18T17:54:08.255Z,46.85
2023-03-18T17:56:38.194Z,47.81
2023-03-18T17:59:06.471Z,48.28
2023-03-18T18:01:33.564Z,49.18
2023-03-18T18:04:06.708Z,49.20
2023-03-18T18:06:34.072Z,47.59
2023-03-18T18:09:04.636Z,47.76
2023-03-18T18:11:38.422Z,48.78
2023-03-18T18:14:26.856Z,48.27
2023-03-18T18:16:56.231Z,48.15
2023-03-18T18:19:23.347Z,48.66
2023-03-18T18:21:50.921Z,48.72
2023-03-18T18:24:25.336Z,48.54
2023-03-18T18:26:52.212Z,48.26
2023-03-18T18:29:24.788Z,48.39
2023-03-18T18:31:52.985Z,48.88
2023-03-18T18:34:21.405Z,48.85
2023-03-18T18:36:49.856Z,48.98
2023-03-18T18:39:17.266Z,49.89
2023-03-18T18:41:47.947Z,50.35
2023-03-18T18:44:14.924Z,49.79
2023-03-18T18:46:42.371Z,50.19
2023-03-18T18:49:23.743Z,49.87
2023-03-18T18:51:55.517Z,50.02
2023-03-18T18:54:23.354Z,49.40
2023-03-18T18:56:51.015Z,50.13
2023-03-18T18:59:23.472Z,49.64
2023-03-18T19:01:52.104Z,50.01
2023-03-18T19:04:19.096Z,50.08
2023-03-18T19:06:46.824Z,50.50
2023-03-18T19:09:31.786Z,50.52
2023-03-18T19:11:58.941Z,50.31
2023-03-18T19:14:29.516Z,50.81
2023-03-18T19:16:58.841Z,50.44
2023-03-18T19:19:29.349Z,51.01
2023-03-18T19:21:57.646Z,51.60
2023-03-18T19:24:28.913Z,51.70
2023-03-18T19:26:58.911Z,51.28
2023-03-18T19:29:26.696Z,51.74
2023-03-18T19:31:54.780Z,51.38
2023-03-18T19:34:22.794Z,50.93
2023-03-18T19:36:53.170Z,50.90
2023-03-18T19:39:22.745Z,51.67
2023-03-18T19:41:49.878Z,51.02
2023-03-18T19:44:22.320Z,50.21
2023-03-18T19:46:52.647Z,50.25
2023-03-18T19:49:36.566Z,50.41
2023-03-18T19:52:25.747Z,50.30
2023-03-18T19:54:53.555Z,49.96
2023-03-18T19:57:27.272Z,50.15
2023-03-18T20:02:41.020Z,51.67
2023-03-18T20:05:17.290Z,51.73
2023-03-18T20:07:44.135Z,52.02
2023-03-18T20:10:12.358Z,52.15
2023-03-18T20:12:44.590Z,53.18
2023-03-18T20:15:31.573Z,53.59
2023-03-18T20:18:01.743Z,53.24
2023-03-18T20:20:32.881Z,53.47
2023-03-18T20:23:12.772Z,52.55
2023-03-18T20:25:43.735Z,52.64
2023-03-18T20:28:19.166Z,52.20
2023-03-18T20:30:47.294Z,52.44
2023-03-18T20:33:14.483Z,52.71
2023-03-18T20:35:44.373Z,53.46
2023-03-18T20:38:22.470Z,53.95
2023-03-18T20:40:50.009Z,53.07
2023-03-18T20:43:18.573Z,52.68
2023-03-18T20:45:45.697Z,52.68
2023-03-18T20:48:13.124Z,51.84
2023-03-18T20:50:41.078Z,52.97
2023-03-18T20:53:19.069Z,52.40
2023-03-18T20:55:49.619Z,51.88
2023-03-18T20:58:22.287Z,51.92
2023-03-18T21:00:49.678Z,52.53
2023-03-18T21:03:31.201Z,52.63
2023-03-18T21:06:00.446Z,53.26
2023-03-18T21:08:28.384Z,54.26
2023-03-18T21:10:59.024Z,54.16
2023-03-18T21:13:38.238Z,54.88
2023-03-18T21:16:08.232Z,54.99
2023-03-18T21:18:35.782Z,54.52
2023-03-18T21:21:03.094Z,54.25
2023-03-18T21:23:34.512Z,54.86
2023-03-18T21:26:02.240Z,54.36
2023-03-18T21:28:30.188Z,54.26
2023-03-18T21:30:58.735Z,54.08
2023-03-18T21:33:27.406Z,54.17
2023-03-18T21:35:58.871Z,53.72
2023-03-18T21:38:35.140Z,54.12
2023-03-18T21:41:02.284Z,52.86
2023-03-18T21:43:37.354Z,52.43
2023-03-18T21:46:12.768Z,52.07
2023-03-18T21:48:52.342Z,52.80
2023-03-18T21:51:35.479Z,53.56
2023-03-18T21:54:05.552Z,54.17
2023-03-18T21:56:32.646Z,53.63
2023-03-18T21:58:59.411Z,54.71
2023-03-18T22:01:31.127Z,54.93
2023-03-18T22:03:58.508Z,54.56
2023-03-18T22:06:25.489Z,54.64
2023-03-18T22:08:52.878Z,54.28
2023-03-18T22:11:22.217Z,54.51
2023-03-18T22:13:49.842Z,54.42
2023-03-18T22:16:19.012Z,53.60
2023-03-18T22:18:47.560Z,53.78
2023-03-18T22:21:26.579Z,54.46
2023-03-18T22:23:54.279Z,54.01
2023-03-18T22:26:21.699Z,54.97
2023-03-18T22:28:50.809Z,54.94
2023-03-18T22:31:23.972Z,55.20
2023-03-18T22:33:51.128Z,55.52
2023-03-18T22:36:19.229Z,56.00
2023-03-18T22:38:47.520Z,56.31
2023-03-18T22:41:19.633Z,57.07
2023-03-18T22:43:46.878Z,56.26
2023-03-18T22:46:13.683Z,56.67
2023-03-18T22:48:41.130Z,56.52
2023-03-18T22:51:08.723Z,56.73
2023-03-18T22:53:41.869Z,56.23
2023-03-18T22:56:19.185Z,56.62
2023-03-18T22:58:46.156Z,57.37
2023-03-18T23:01:19.138Z,57.53
2023-03-18T23:03:48.094Z,58.52
2023-03-18T23:06:20.891Z,58.02
2023-03-18T23:08:48.295Z,58.15
2023-03-18T23:11:16.624Z,58.69
2023-03-18T23:13:49.906Z,58.60
2023-03-18T23:16:23.324Z,59.64
2023-03-18T23:18:50.917Z,59.48
2023-03-18T23:21:20.619Z,59.80
2023-03-18T23:23:47.897Z,58.63
2023-03-18T23:26:18.947Z,59.39
2023-03-18T23:28:47.014Z,59.60
2023-03-18T23:31:16.094Z,60.22
2023-03-18T23:33:43.349Z,59.44
2023-03-18T23:36:10.890Z,59.20
2023-03-18T23:38:38.263Z,59.64
2023-03-18T23:41:06.181Z,61.67
2023-03-18T23:43:33.041Z,60.96
2023-03-18T23:46:00.375Z,60.14
2023-03-18T23:48:27.340Z,59.78
2023-03-18T23:50:54.144Z,60.04
2023-03-18T23:53:22.884Z,60.04
2023-03-18T23:55:50.042Z,60.58
2023-03-18T23:58:17.165Z,60.81
